Time;durP1;ratioP1;P1;durP2;ratioP2;P2;SDS_P1;SDS_P2;PMS_P1;PMS_P2;Temp;Humidity;BMP_temperature;BMP_pressure;BME280_temperature;BME280_humidity;BME280_pressure;Samples;Min_cycle;Max_cycle;Signal;HPM_P1;HPM_P2
2021/12/21 00:00:12;;;;;;;1.83;0.98;;;;;;;17.51;27.71;98049.81;5083178;28;20403;-62
2021/12/21 00:02:39;;;;;;;0.88;0.70;;;;;;;17.51;27.59;98049.81;5080849;28;20093;-63
2021/12/21 00:05:06;;;;;;;2.58;1.13;;;;;;;17.52;27.71;98047.97;5074916;28;20040;-63
2021/12/21 00:07:31;;;;;;;1.00;0.77;;;;;;;17.53;27.90;98054.97;5074499;28;20028;-62
2021/12/21 00:09:57;;;;;;;3.17;1.00;;;;;;;17.53;27.94;98054.97;5075393;28;20040;-64
2021/12/21 00:12:26;;;;;;;1.10;1.00;;;;;;;17.50;27.98;98050.81;5076242;28;20047;-62
2021/12/21 00:15:42;;;;;;;1.35;0.73;;;;;;;17.49;27.93;98056.38;5083256;28;20042;-63
2021/12/21 00:20:24;;;;;;;2.10;1.00;;;;;;;17.45;28.15;98044.44;5074255;28;20385;-58
2021/12/21 00:25:22;;;;;;;1.67;1.00;;;;;;;17.43;28.55;98051.84;5074452;28;20058;-61
2021/12/21 00:27:51;;;;;;;1.63;0.98;;;;;;;17.44;28.47;98051.66;5073964;28;20059;-63
2021/12/21 00:30:18;;;;;;;1.25;0.80;;;;;;;17.42;28.62;98047.53;5074657;28;20033;-62
2021/12/21 00:32:44;;;;;;;1.63;0.95;;;;;;;17.45;28.79;98057.81;5074296;28;20039;-61
2021/12/21 00:35:11;;;;;;;2.25;1.02;;;;;;;17.45;28.67;98047.13;5073868;28;20032;-62
2021/12/21 00:37:40;;;;;;;1.27;1.17;;;;;;;17.42;28.30;98053.69;5074005;28;20043;-62
2021/12/21 00:40:06;;;;;;;1.50;0.90;;;;;;;17.42;28.43;98053.69;5078890;28;20103;-64
2021/12/21 00:42:32;;;;;;;1.20;0.60;;;;;;;17.37;28.29;98048.13;5080999;28;20032;-61
2021/12/21 00:44:57;;;;;;;3.33;0.80;;;;;;;17.36;27.88;98049.16;5075407;28;20372;-63
2021/12/21 00:47:23;;;;;;;1.27;0.95;;;;;;;17.37;27.73;98050.78;5074243;28;20028;-67
2021/12/21 00:49:58;;;;;;;6.18;1.33;;;;;;;17.33;27.51;98052.25;5074151;28;20029;-63
2021/12/21 00:52:24;;;;;;;3.13;0.93;;;;;;;17.24;27.24;98054.28;5074339;28;20060;-67
2021/12/21 00:54:50;;;;;;;1.50;0.80;;;;;;;17.18;27.56;98068.41;5073818;28;20495;-63
2021/12/21 00:57:16;;;;;;;1.42;1.00;;;;;;;17.08;27.82;98058.94;5074241;28;20035;-55
2021/12/21 00:59:42;;;;;;;4.03;0.90;;;;;;;17.02;27.85;98067.75;5089477;28;20028;-67
2021/12/21 01:02:08;;;;;;;1.85;0.75;;;;;;;16.97;27.81;98062.19;5091644;28;20020;-66
2021/12/21 01:04:39;;;;;;;4.03;2.03;;;;;;;16.92;27.94;98057.38;5090876;28;20509;-66
2021/12/21 01:12:41;;;;;;;1.20;0.80;;;;;;;16.85;27.75;98069.06;5089078;28;20043;-67
2021/12/21 01:20:28;;;;;;;1.27;0.73;;;;;;;16.73;27.61;98084.84;5089107;28;20028;-68
2021/12/21 01:23:20;;;;;;;0.90;0.60;;;;;;;16.66;27.52;98082.13;5090135;28;20042;-67
2021/12/21 01:25:54;;;;;;;0.90;0.60;;;;;;;16.62;27.39;98092.34;5092082;28;20111;-67
2021/12/21 01:28:31;;;;;;;0.98;0.60;;;;;;;16.60;27.32;98090.91;5090341;28;20113;-67
2021/12/21 01:31:18;;;;;;;1.52;0.65;;;;;;;16.57;27.61;98080.59;5089166;28;20074;-66
2021/12/21 01:36:27;;;;;;;1.27;0.60;;;;;;;16.54;27.79;98094.38;5090183;28;20036;-67
2021/12/21 01:49:58;;;;;;;2.17;1.05;;;;;;;16.32;27.64;98087.22;5034085;28;20069;-66
2021/12/21 01:52:26;;;;;;;1.10;0.90;;;;;;;16.31;27.56;98088.25;5088598;28;20086;-66
2021/12/21 01:54:53;;;;;;;1.75;0.70;;;;;;;16.29;27.50;98086.78;5089469;28;20052;-68
2021/12/21 01:57:19;;;;;;;1.85;1.00;;;;;;;16.26;27.18;98092.50;5091915;28;20042;-68
2021/12/21 01:59:47;;;;;;;2.28;1.13;;;;;;;16.26;27.35;98092.50;5088478;28;20110;-68
2021/12/21 02:02:17;;;;;;;2.13;1.00;;;;;;;16.24;27.44;98089.22;5089668;28;20043;-68
2021/12/21 02:04:44;;;;;;;1.38;0.85;;;;;;;16.22;27.68;98086.72;5089411;28;20483;-68
2021/12/21 02:07:10;;;;;;;1.50;0.85;;;;;;;16.24;27.50;98089.22;5090393;28;20032;-67
2021/12/21 02:09:39;;;;;;;1.33;0.70;;;;;;;16.21;27.58;98098.41;5091641;28;20055;-67
2021/12/21 02:12:06;;;;;;;1.50;1.02;;;;;;;16.20;27.24;98101.28;5092936;28;20035;-68
2021/12/21 02:14:32;;;;;;;2.65;1.10;;;;;;;16.17;27.53;98099.84;5075682;28;20123;-67
2021/12/21 02:17:41;;;;;;;1.67;0.82;;;;;;;16.18;27.29;98096.13;5072668;28;20064;-70
2021/12/21 02:20:22;;;;;;;1.42;0.80;;;;;;;16.14;27.21;98109.03;5092514;28;20032;-69
2021/12/21 02:23:05;;;;;;;1.05;0.70;;;;;;;16.11;27.20;98112.09;5090355;28;20043;-68
2021/12/21 02:25:49;;;;;;;0.90;0.60;;;;;;;16.09;27.59;98107.97;5108183;28;20038;-68
2021/12/21 02:30:44;;;;;;;1.83;0.98;;;;;;;16.11;27.38;98117.41;5072182;28;20491;-67
2021/12/21 02:33:11;;;;;;;2.17;1.10;;;;;;;16.09;27.70;98116.81;5072129;28;20028;-68
2021/12/21 02:35:37;;;;;;;1.75;1.00;;;;;;;16.10;27.28;98115.78;5072570;28;20123;-68
2021/12/21 02:38:02;;;;;;;1.50;0.90;;;;;;;16.11;27.17;98128.09;5080238;28;20115;-68
2021/12/21 02:40:28;;;;;;;1.40;0.77;;;;;;;16.11;27.44;98125.44;5074308;28;20028;-67
2021/12/21 02:42:53;;;;;;;1.92;0.75;;;;;;;16.11;27.21;98121.94;5072344;28;20055;-68
2021/12/21 02:45:19;;;;;;;1.08;0.75;;;;;;;16.12;27.51;98128.94;5072104;28;20475;-67
2021/12/21 02:47:45;;;;;;;1.55;0.70;;;;;;;16.10;27.14;98134.44;5072387;28;20064;-68
2021/12/21 02:50:10;;;;;;;1.50;0.88;;;;;;;16.08;27.34;98133.84;5072340;28;20376;-67
2021/12/21 02:52:36;;;;;;;1.15;0.80;;;;;;;16.05;27.20;98136.03;5071851;28;20522;-68
2021/12/21 02:55:05;;;;;;;2.42;1.15;;;;;;;16.05;27.64;98144.03;5072460;28;20032;-68
2021/12/21 02:57:31;;;;;;;2.28;0.93;;;;;;;16.03;27.45;98141.59;5073645;28;20548;-68
2021/12/21 02:59:56;;;;;;;1.48;0.77;;;;;;;16.01;27.25;98138.28;5079236;28;20056;-67
2021/12/21 03:02:22;;;;;;;1.88;0.85;;;;;;;15.98;27.77;98134.16;5076240;28;20043;-66
2021/12/21 03:04:50;;;;;;;2.15;0.80;;;;;;;15.96;27.50;98128.19;5076768;28;20078;-66
2021/12/21 03:09:55;;;;;;;2.70;0.90;;;;;;;15.97;27.83;98147.66;5076833;28;20526;-66
2021/12/21 03:14:47;;;;;;;1.17;0.80;;;;;;;15.98;28.02;98138.66;5076051;28;20047;-68
2021/12/21 03:17:13;;;;;;;1.17;0.65;;;;;;;15.95;27.95;98142.53;5075802;28;20028;-68
2021/12/21 03:19:39;;;;;;;1.63;0.95;;;;;;;15.94;28.33;98142.72;5076151;28;20533;-65
2021/12/21 03:22:06;;;;;;;0.98;0.65;;;;;;;15.92;27.98;98155.44;5094514;28;20027;-66
2021/12/21 03:24:33;;;;;;;1.40;0.68;;;;;;;15.92;27.91;98158.91;5095820;28;20089;-66
2021/12/21 03:26:59;;;;;;;0.63;0.57;;;;;;;15.91;28.16;98161.78;5095972;28;20063;-66
2021/12/21 03:29:27;;;;;;;1.58;0.85;;;;;;;15.89;27.57;98166.47;5083105;28;20407;-67
2021/12/21 03:31:53;;;;;;;1.15;0.90;;;;;;;15.88;27.92;98170.16;5075803;28;20062;-66
2021/12/21 03:34:19;;;;;;;1.40;1.08;;;;;;;15.88;27.50;98159.47;5074928;28;20406;-66
2021/12/21 03:36:45;;;;;;;1.50;0.70;;;;;;;15.88;27.73;98156.81;5075065;28;20428;-66
2021/12/21 03:39:17;;;;;;;1.33;0.80;;;;;;;15.89;27.97;98169.94;5079437;28;20033;-67
2021/12/21 03:41:47;;;;;;;0.98;0.73;;;;;;;15.87;27.53;98166.66;5087653;28;20028;-66
2021/12/21 03:44:15;;;;;;;0.75;0.63;;;;;;;15.90;28.05;98168.94;5075073;28;20399;-66
2021/12/21 03:46:52;;;;;;;0.85;0.60;;;;;;;15.90;28.04;98168.13;5075448;28;20127;-68
2021/12/21 03:52:08;;;;;;;1.48;0.70;;;;;;;15.83;28.12;98160.03;5075684;28;20044;-67
2021/12/21 03:54:34;;;;;;;1.42;0.68;;;;;;;15.82;28.02;98159.19;5074697;28;20032;-67
2021/12/21 03:57:00;;;;;;;1.52;0.68;;;;;;;15.80;27.84;98163.91;5075185;28;20498;-68
2021/12/21 03:59:26;;;;;;;1.40;0.90;;;;;;;15.80;27.82;98155.91;5075192;28;20068;-67
2021/12/21 04:01:52;;;;;;;0.90;0.75;;;;;;;15.79;27.62;98162.25;5094826;28;20454;-69
2021/12/21 04:04:19;;;;;;;1.20;0.73;;;;;;;15.77;27.98;98169.59;5095042;28;20387;-69
2021/12/21 04:06:45;;;;;;;1.92;0.80;;;;;;;15.79;27.80;98166.75;5095039;28;20032;-68
2021/12/21 04:09:11;;;;;;;1.23;0.90;;;;;;;15.79;27.79;98170.25;5075584;28;20131;-68
2021/12/21 04:11:36;;;;;;;1.23;0.85;;;;;;;15.78;27.89;98181.94;5075074;28;20116;-67
2021/12/21 04:14:03;;;;;;;1.65;0.95;;;;;;;15.75;27.76;98184.97;5074720;28;20119;-68
2021/12/21 04:16:29;;;;;;;1.48;0.88;;;;;;;15.75;27.79;98184.97;5076714;28;20036;-68
2021/12/21 04:18:55;;;;;;;1.73;0.90;;;;;;;15.73;27.74;98187.00;5074820;28;20036;-67
2021/12/21 04:21:20;;;;;;;1.35;1.00;;;;;;;15.70;28.00;98182.88;5074859;28;20025;-66
2021/12/21 04:23:46;;;;;;;1.10;0.82;;;;;;;15.69;27.69;98199.03;5074017;28;20514;-67
2021/12/21 04:26:14;;;;;;;2.53;0.90;;;;;;;15.69;27.87;98201.69;5074552;28;20032;-67
2021/12/21 04:28:40;;;;;;;1.40;0.88;;;;;;;15.70;27.97;98184.69;5074208;28;20063;-67
2021/12/21 04:31:06;;;;;;;1.15;0.80;;;;;;;15.71;27.71;98189.84;5078872;28;20040;-67
2021/12/21 04:33:33;;;;;;;2.47;1.23;;;;;;;15.72;27.80;98193.34;5086272;28;20391;-67
2021/12/21 04:36:00;;;;;;;1.67;0.80;;;;;;;15.68;27.90;98179.56;5074512;28;20036;-67
2021/12/21 04:38:31;;;;;;;2.05;1.42;;;;;;;15.67;27.83;98188.56;5074392;28;20040;-67
2021/12/21 04:41:09;;;;;;;1.02;0.75;;;;;;;15.67;28.02;98191.22;5091286;28;20040;-67
2021/12/21 04:43:35;;;;;;;1.90;0.90;;;;;;;15.65;28.02;98190.59;5082367;28;20044;-67
2021/12/21 04:46:01;;;;;;;1.60;0.93;;;;;;;15.66;27.94;98200.25;5074757;28;20040;-67
2021/12/21 04:48:27;;;;;;;0.95;0.82;;;;;;;15.66;27.98;98199.44;5089466;28;20040;-67
2021/12/21 04:50:53;;;;;;;1.88;0.63;;;;;;;15.65;27.79;98205.78;5074207;28;20086;-67
2021/12/21 04:53:19;;;;;;;1.70;0.90;;;;;;;15.64;27.94;98210.25;5074011;28;20044;-67
2021/12/21 04:55:45;;;;;;;1.45;0.88;;;;;;;15.66;27.98;98210.09;5074217;28;20047;-67
2021/12/21 04:58:10;;;;;;;1.33;0.80;;;;;;;15.65;27.85;98205.78;5075332;28;20032;-68
2021/12/21 05:00:38;;;;;;;2.50;1.60;;;;;;;15.66;27.87;98210.91;5072059;28;20066;-68
2021/12/21 05:03:03;;;;;;;2.28;1.00;;;;;;;15.67;28.04;98214.38;5086886;28;20445;-68
2021/12/21 05:05:29;;;;;;;1.58;0.98;;;;;;;15.69;28.42;98212.38;5093963;28;20078;-68
2021/12/21 05:08:07;;;;;;;1.38;0.90;;;;;;;15.70;28.08;98206.03;5084062;28;20032;-67
2021/12/21 05:10:46;;;;;;;1.30;0.82;;;;;;;15.72;28.45;98214.66;5073539;28;20027;-67
2021/12/21 05:13:13;;;;;;;1.95;0.90;;;;;;;15.73;28.33;98213.66;5073532;28;20514;-67
2021/12/21 05:15:39;;;;;;;1.30;0.85;;;;;;;15.74;28.03;98228.66;5073496;28;20064;-67
2021/12/21 05:18:04;;;;;;;1.42;0.90;;;;;;;15.70;28.37;98222.03;5082254;28;20067;-67
2021/12/21 05:20:30;;;;;;;1.95;1.30;;;;;;;15.70;28.19;98228.19;5093485;28;20020;-67
2021/12/21 05:22:56;;;;;;;1.60;1.13;;;;;;;15.68;28.06;98224.88;5091726;28;20387;-67
2021/12/21 05:25:21;;;;;;;1.67;1.02;;;;;;;15.67;28.34;98233.06;5074156;28;20040;-67
2021/12/21 05:27:47;;;;;;;1.40;0.80;;;;;;;15.67;28.25;98236.56;5073167;28;20048;-67
2021/12/21 05:30:14;;;;;;;1.58;1.00;;;;;;;15.65;28.34;98227.91;5073458;28;20071;-67
2021/12/21 05:32:39;;;;;;;2.00;1.13;;;;;;;15.65;28.17;98229.78;5072610;28;20032;-68
2021/12/21 05:35:06;;;;;;;1.92;1.25;;;;;;;15.65;28.09;98238.59;5077479;28;20039;-69
2021/12/21 05:37:31;;;;;;;1.38;0.65;;;;;;;15.65;27.80;98243.91;5072823;28;20036;-66
2021/12/21 05:40:09;;;;;;;1.58;0.93;;;;;;;15.64;27.72;98239.59;5072752;28;20040;-69
2021/12/21 05:42:34;;;;;;;3.10;0.85;;;;;;;15.63;27.67;98234.47;5072912;28;20036;-68
2021/12/21 05:45:00;;;;;;;1.45;1.00;;;;;;;15.64;27.88;98244.13;5082072;28;20051;-69
2021/12/21 05:47:26;;;;;;;1.45;0.80;;;;;;;15.64;27.44;98241.44;5093373;28;20043;-69
2021/12/21 05:49:51;;;;;;;1.15;0.88;;;;;;;15.63;27.53;98240.59;5093241;28;20040;-69
2021/12/21 05:52:17;;;;;;;2.72;0.93;;;;;;;15.61;27.38;98242.63;5093217;28;20039;-69
2021/12/21 05:54:42;;;;;;;2.13;1.45;;;;;;;15.62;27.46;98244.28;5079189;28;20042;-69
2021/12/21 05:57:08;;;;;;;1.83;1.00;;;;;;;15.62;27.60;98248.81;5073322;28;20090;-69
2021/12/21 05:59:33;;;;;;;3.58;1.00;;;;;;;15.60;27.54;98250.81;5072920;28;20032;-68
2021/12/21 06:01:59;;;;;;;1.52;0.98;;;;;;;15.60;27.26;98261.47;5072747;28;20059;-68
2021/12/21 06:04:25;;;;;;;1.52;0.90;;;;;;;15.57;27.60;98249.38;5073119;28;20437;-69
2021/12/21 06:06:51;;;;;;;1.95;1.17;;;;;;;15.56;27.38;98251.19;5072513;28;20068;-70
2021/12/21 06:09:17;;;;;;;1.38;0.90;;;;;;;15.55;27.68;98252.19;5072267;28;20075;-69
2021/12/21 06:11:51;;;;;;;2.85;1.58;;;;;;;15.55;27.71;98252.19;5071620;28;20570;-68
2021/12/21 06:28:12;;;;;;;1.67;1.13;;;;;;;15.52;27.38;98271.22;5009294;28;20057;-68
2021/12/21 06:30:40;;;;;;;1.65;1.05;;;;;;;15.53;27.29;98277.41;5010086;28;20121;-68
2021/12/21 06:33:07;;;;;;;1.17;0.85;;;;;;;15.53;27.52;98280.06;5040321;28;20496;-69
2021/12/21 06:35:33;;;;;;;2.33;1.27;;;;;;;15.53;27.55;98280.88;5072506;28;20032;-67
2021/12/21 06:37:59;;;;;;;1.70;1.08;;;;;;;15.52;27.11;98287.22;5081148;28;20119;-67
2021/12/21 06:40:25;;;;;;;1.75;1.27;;;;;;;15.51;26.97;98287.41;5080361;28;20123;-68
2021/12/21 06:42:51;;;;;;;2.33;1.25;;;;;;;15.50;27.00;98280.41;5089267;28;20092;-67
2021/12/21 06:45:29;;;;;;;1.02;0.85;;;;;;;15.50;27.21;98289.25;5072006;28;20064;-67
2021/12/21 06:53:26;;;;;;;2.83;1.30;;;;;;;15.48;27.16;98298.44;5072225;28;20572;-67
2021/12/21 06:55:52;;;;;;;2.05;1.10;;;;;;;15.47;27.16;98286.97;5071059;28;20040;-67
2021/12/21 06:58:17;;;;;;;3.45;1.10;;;;;;;15.51;27.02;98293.56;5071765;28;20102;-69
2021/12/21 07:00:43;;;;;;;1.42;0.77;;;;;;;15.52;26.91;98299.72;5072118;28;20487;-68
2021/12/21 07:03:11;;;;;;;1.85;1.20;;;;;;;15.52;27.15;98303.22;5071758;28;20044;-68
2021/12/21 07:05:37;;;;;;;1.10;0.77;;;;;;;15.53;26.89;98304.06;5072109;28;20450;-66
2021/12/21 07:08:02;;;;;;;1.42;0.98;;;;;;;15.51;27.12;98293.56;5072147;28;20132;-67
2021/12/21 07:10:31;;;;;;;1.67;1.20;;;;;;;15.53;27.48;98304.88;5071781;28;20036;-67
2021/12/21 07:18:34;;;;;;;1.65;1.05;;;;;;;15.54;27.41;98314.53;5086483;28;20042;-68
2021/12/21 07:21:01;;;;;;;1.67;1.20;;;;;;;15.53;27.23;98318.19;5073539;28;20035;-67
2021/12/21 07:23:28;;;;;;;1.85;0.98;;;;;;;15.52;27.11;98318.38;5071680;28;20500;-66
2021/12/21 07:25:54;;;;;;;1.75;1.00;;;;;;;15.50;27.11;98321.25;5072055;28;20123;-67
2021/12/21 07:28:20;;;;;;;1.17;0.93;;;;;;;15.51;27.09;98317.53;5071621;28;20164;-69
2021/12/21 07:30:47;;;;;;;1.42;0.95;;;;;;;15.51;27.22;98325.53;5071758;28;20051;-69
2021/12/21 07:33:14;;;;;;;1.13;0.90;;;;;;;15.49;26.94;98335.59;5071726;28;20123;-67
2021/12/21 07:35:40;;;;;;;3.10;1.58;;;;;;;15.51;26.79;98338.06;5071703;28;20115;-67
2021/12/21 07:38:06;;;;;;;2.05;1.33;;;;;;;15.50;27.10;98336.41;5082490;28;20123;-68
2021/12/21 07:40:31;;;;;;;1.63;1.15;;;;;;;15.49;26.99;98324.91;5085382;28;20394;-67
2021/12/21 07:42:57;;;;;;;2.30;1.00;;;;;;;15.53;26.83;98331.53;5092527;28;20036;-66
2021/12/21 07:45:22;;;;;;;2.35;1.00;;;;;;;15.52;26.82;98332.53;5095505;28;20046;-67
2021/12/21 07:47:48;;;;;;;2.78;1.50;;;;;;;15.51;27.19;98338.88;5092327;28;20032;-65
2021/12/21 07:50:14;;;;;;;5.82;1.55;;;;;;;15.50;27.01;98339.91;5094573;28;20390;-67
2021/12/21 07:52:40;;;;;;;1.85;1.23;;;;;;;15.51;26.57;98330.88;5095111;28;20039;-66
2021/12/21 07:55:06;;;;;;;3.03;1.00;;;;;;;15.52;26.72;98337.06;5095338;28;20032;-67
2021/12/21 07:57:32;;;;;;;1.63;1.20;;;;;;;15.52;27.11;98342.38;5092748;28;20036;-66
2021/12/21 07:59:58;;;;;;;2.38;1.52;;;;;;;15.52;27.08;98347.72;5075079;28;20445;-66
2021/12/21 08:02:25;;;;;;;2.35;1.08;;;;;;;15.51;26.90;98352.19;5075008;28;20032;-66
2021/12/21 08:04:52;;;;;;;2.45;1.17;;;;;;;15.53;27.40;98352.84;5073941;28;20037;-67
2021/12/21 08:07:22;;;;;;;3.35;1.70;;;;;;;15.51;27.16;98343.38;5074879;28;20032;-66
2021/12/21 08:09:52;;;;;;;1.85;1.20;;;;;;;15.53;27.13;98346.72;5075136;28;20040;-66
2021/12/21 08:12:18;;;;;;;1.80;1.00;;;;;;;15.52;27.59;98353.84;5089375;28;20058;-68
2021/12/21 08:14:48;;;;;;;1.83;1.35;;;;;;;15.52;27.24;98359.19;5094754;28;20043;-69
2021/12/21 08:17:14;;;;;;;2.53;1.35;;;;;;;15.51;27.32;98346.06;5094944;28;20039;-68
2021/12/21 08:19:39;;;;;;;2.25;1.30;;;;;;;15.52;27.45;98347.72;5076380;28;20040;-68
2021/12/21 08:22:05;;;;;;;2.22;1.30;;;;;;;15.52;27.43;98353.03;5074642;28;20105;-67
2021/12/21 08:24:31;;;;;;;2.30;1.20;;;;;;;15.51;27.02;98349.53;5078023;28;20036;-68
2021/12/21 08:26:59;;;;;;;2.25;1.33;;;;;;;15.53;27.15;98350.19;5074611;28;20067;-68
2021/12/21 08:29:25;;;;;;;2.17;1.27;;;;;;;15.54;27.13;98343.03;5074570;28;20071;-69
2021/12/21 08:31:51;;;;;;;2.25;1.42;;;;;;;15.54;26.95;98343.03;5074237;28;20036;-67
2021/12/21 08:34:16;;;;;;;2.70;1.40;;;;;;;15.57;27.19;98342.66;5074524;28;20036;-66
2021/12/21 08:36:42;;;;;;;2.75;1.63;;;;;;;15.59;27.15;98350.47;5074357;28;20060;-67
2021/12/21 08:39:08;;;;;;;3.10;1.70;;;;;;;15.60;26.98;98338.81;5073928;28;20086;-67
2021/12/21 08:41:40;;;;;;;2.00;1.48;;;;;;;15.60;26.92;98339.63;5074375;28;20033;-67
2021/12/21 08:44:06;;;;;;;3.17;1.50;;;;;;;15.61;26.81;98340.47;5073996;28;20102;-67
2021/12/21 08:46:31;;;;;;;2.85;1.40;;;;;;;15.61;26.77;98338.59;5074258;28;20036;-67
2021/12/21 08:48:57;;;;;;;2.00;1.48;;;;;;;15.62;26.77;98342.94;5073736;28;20499;-67
2021/12/21 08:51:22;;;;;;;2.25;1.38;;;;;;;15.64;27.09;98345.44;5083134;28;20067;-67
2021/12/21 08:53:48;;;;;;;4.07;1.30;;;;;;;15.65;26.83;98339.09;5074145;28;20491;-66
2021/12/21 08:56:13;;;;;;;3.53;1.20;;;;;;;15.66;26.90;98338.09;5073637;28;20491;-65
2021/12/21 08:58:39;;;;;;;1.65;1.17;;;;;;;15.67;26.56;98340.56;5073986;28;20115;-65
2021/12/21 09:01:05;;;;;;;1.70;1.05;;;;;;;15.66;26.58;98348.75;5073708;28;20033;-66
2021/12/21 09:03:31;;;;;;;1.45;0.98;;;;;;;15.66;26.68;98340.75;5073817;28;20039;-67
2021/12/21 09:05:57;;;;;;;2.10;1.30;;;;;;;15.65;26.62;98341.75;5075601;28;20100;-67
2021/12/21 09:08:23;;;;;;;2.70;1.50;;;;;;;15.67;26.51;98340.56;5091672;28;20066;-66
2021/12/21 09:10:49;;;;;;;2.03;1.23;;;;;;;15.66;26.78;98346.09;5094056;28;20066;-67
2021/12/21 09:13:15;;;;;;;2.35;1.20;;;;;;;15.67;26.88;98361.03;5082133;28;20040;-68
2021/12/21 09:15:40;;;;;;;5.72;1.55;;;;;;;15.65;26.79;98347.91;5073706;28;20395;-67
2021/12/21 09:18:06;;;;;;;2.85;1.30;;;;;;;15.68;26.97;98357.38;5073457;28;20418;-67
2021/12/21 09:20:33;;;;;;;2.03;1.23;;;;;;;15.69;26.87;98345.69;5073866;28;20033;-67
2021/12/21 09:22:59;;;;;;;2.88;1.40;;;;;;;15.72;26.88;98348.00;5073376;28;20580;-67
2021/12/21 09:25:25;;;;;;;1.92;1.30;;;;;;;15.74;26.81;98345.97;5086191;28;20028;-67
2021/12/21 09:27:51;;;;;;;2.25;1.27;;;;;;;15.74;27.00;98342.47;5088638;28;20515;-66
2021/12/21 09:30:19;;;;;;;2.40;1.30;;;;;;;15.74;26.75;98353.13;5072495;28;20463;-67
2021/12/21 09:32:44;;;;;;;4.47;1.48;;;;;;;15.73;27.07;98362.19;5081710;28;20078;-68
2021/12/21 09:35:11;;;;;;;5.55;1.58;;;;;;;15.74;27.75;98361.97;5083163;28;20075;-68
2021/12/21 09:37:38;;;;;;;8.30;1.73;;;;;;;15.80;28.15;98355.09;5078567;28;20408;-66
2021/12/21 09:40:09;;;;;;;3.38;2.03;;;;;;;15.87;28.40;98361.38;5082881;28;20042;-65
2021/12/21 09:42:35;;;;;;;7.05;2.08;;;;;;;15.93;28.26;98359.81;5089622;28;20044;-67
2021/12/21 09:45:00;;;;;;;4.78;2.53;;;;;;;15.99;28.10;98369.72;5093127;28;20040;-67
2021/12/21 09:47:27;;;;;;;2.83;2.05;;;;;;;15.99;27.95;98362.56;5090663;28;20032;-68
2021/12/21 09:49:54;;;;;;;4.68;2.20;;;;;;;16.04;28.02;98353.16;5088026;28;20043;-68
2021/12/21 09:52:23;;;;;;;7.65;2.80;;;;;;;16.08;28.06;98362.47;5087603;28;20050;-67
2021/12/21 09:54:50;;;;;;;4.07;2.25;;;;;;;16.11;27.96;98360.25;5090741;28;20421;-67
2021/12/21 09:57:18;;;;;;;4.70;2.95;;;;;;;16.12;28.47;98361.91;5072990;28;20039;-66
2021/12/21 09:59:45;;;;;;;5.90;2.60;;;;;;;16.16;28.43;98362.38;5075277;28;20064;-66
2021/12/21 10:02:11;;;;;;;4.70;2.22;;;;;;;16.19;28.27;98356.66;5090230;28;20032;-67
2021/12/21 10:05:00;;;;;;;3.55;2.33;;;;;;;16.20;28.16;98352.16;5084156;28;20031;-67
2021/12/21 10:07:27;;;;;;;4.22;2.50;;;;;;;16.20;28.12;98354.81;5081447;28;20071;-66
2021/12/21 10:10:11;;;;;;;3.30;2.30;;;;;;;16.16;27.90;98357.03;5092778;28;20040;-68
2021/12/21 10:12:45;;;;;;;4.97;2.30;;;;;;;16.19;27.88;98359.31;5091366;28;20406;-66
2021/12/21 10:15:21;;;;;;;4.28;1.90;;;;;;;16.21;28.02;98359.97;5090417;28;20040;-66
2021/12/21 10:17:58;;;;;;;3.78;2.03;;;;;;;16.24;27.77;98366.78;5087588;28;20044;-66
2021/12/21 10:20:31;;;;;;;3.35;2.20;;;;;;;16.25;27.62;98369.25;5090783;28;20031;-69
2021/12/21 10:22:57;;;;;;;5.35;2.30;;;;;;;16.27;27.96;98364.56;5072441;28;20044;-68
2021/12/21 10:25:24;;;;;;;3.05;2.15;;;;;;;16.40;27.59;98355.88;5075804;28;20044;-72
2021/12/21 10:27:50;;;;;;;3.65;2.53;;;;;;;16.60;27.78;98365.94;5087576;28;20109;-69
2021/12/21 10:30:15;;;;;;;9.98;3.40;;;;;;;16.76;27.96;98367.56;5072538;28;20040;-70
2021/12/21 10:32:54;;;;;;;11.25;2.70;;;;;;;16.87;28.12;98367.06;5072396;28;20039;-65
2021/12/21 10:35:29;;;;;;;11.73;2.40;;;;;;;16.96;27.81;98369.63;5072364;28;20068;-69
2021/12/21 10:37:55;;;;;;;3.08;2.20;;;;;;;17.04;28.02;98372.19;5072385;28;20054;-71
2021/12/21 10:40:26;;;;;;;4.47;1.92;;;;;;;17.12;28.23;98380.06;5072708;28;20029;-66
2021/12/21 10:42:55;;;;;;;;;;;;;;;17.03;28.09;98391.91;5080006;28;20068;-71
2021/12/21 10:45:41;;;;;;;7.88;1.90;;;;;;;17.11;27.95;98388.28;5078204;28;19931;-66
2021/12/21 10:48:15;;;;;;;5.50;2.38;;;;;;;17.17;27.78;98385.69;5088573;28;20383;-67
2021/12/21 10:50:43;;;;;;;7.53;2.40;;;;;;;17.20;27.83;98379.09;5087316;28;20044;-72
2021/12/21 10:53:16;;;;;;;7.15;2.30;;;;;;;17.20;26.70;98387.13;5081793;28;20089;-70
2021/12/21 10:55:42;;;;;;;4.30;2.17;;;;;;;16.41;26.17;98383.41;5079236;28;20028;-67
2021/12/21 10:58:17;;;;;;;3.20;2.35;;;;;;;15.47;26.49;98376.75;5086004;28;20043;-65
2021/12/21 11:00:55;;;;;;;5.47;2.42;;;;;;;15.28;27.68;98386.94;5080840;28;20035;-66
2021/12/21 11:03:44;;;;;;;4.15;2.38;;;;;;;15.69;27.48;98386.53;5084144;28;20090;-66
2021/12/21 11:06:15;;;;;;;3.33;2.00;;;;;;;16.07;27.70;98382.16;5072906;28;20441;-68
2021/12/21 11:08:46;;;;;;;4.50;2.00;;;;;;;16.35;27.31;98384.97;5072110;28;20040;-66
2021/12/21 11:11:32;;;;;;;3.20;2.47;;;;;;;16.57;27.13;98403.72;5072035;28;20422;-69
2021/12/21 11:14:15;;;;;;;3.83;1.85;;;;;;;16.73;27.00;98402.69;5071890;28;20428;-66
2021/12/21 11:16:51;;;;;;;2.95;1.90;;;;;;;16.80;26.70;98397.41;5077970;28;20035;-66
2021/12/21 11:19:20;;;;;;;3.17;1.90;;;;;;;16.87;26.77;98392.94;5076912;28;20042;-68
2021/12/21 11:21:47;;;;;;;3.47;1.90;;;;;;;16.94;26.53;98393.84;5075840;28;20044;-65
2021/12/21 11:24:16;;;;;;;2.75;2.05;;;;;;;16.97;26.35;98398.84;5075427;28;20086;-66
2021/12/21 11:26:45;;;;;;;4.03;2.22;;;;;;;16.99;26.14;98390.63;5075853;28;20060;-66
2021/12/21 11:29:17;;;;;;;3.20;2.03;;;;;;;16.99;26.57;98383.44;5075264;28;20131;-66
2021/12/21 11:31:47;;;;;;;4.60;2.35;;;;;;;17.01;26.17;98388.59;5075435;28;20040;-65
2021/12/21 11:34:17;;;;;;;3.28;1.90;;;;;;;17.02;26.01;98393.75;5075316;28;20412;-66
2021/12/21 11:39:39;;;;;;;3.53;2.05;;;;;;;17.03;26.16;98399.94;5075388;28;20086;-65
2021/12/21 11:42:08;;;;;;;3.15;1.65;;;;;;;17.04;26.21;98407.75;5089024;28;20043;-65
2021/12/21 11:44:48;;;;;;;4.53;1.98;;;;;;;17.05;26.03;98396.03;5077233;28;20030;-66
2021/12/21 11:47:22;;;;;;;3.83;2.03;;;;;;;17.03;26.11;98403.41;5095762;28;20089;-66
2021/12/21 11:49:51;;;;;;;3.13;1.88;;;;;;;17.06;25.72;98408.38;5094460;28;20390;-66
2021/12/21 11:52:19;;;;;;;3.22;1.90;;;;;;;17.05;26.02;98417.41;5094247;28;20096;-65
2021/12/21 11:54:57;;;;;;;3.30;1.90;;;;;;;17.05;25.81;98422.75;5081137;28;20043;-66
2021/12/21 11:57:44;;;;;;;3.50;1.60;;;;;;;17.04;25.77;98422.97;5075309;28;20028;-66
2021/12/21 12:00:18;;;;;;;2.33;1.55;;;;;;;17.05;25.99;98420.09;5075349;28;20365;-66
2021/12/21 12:02:45;;;;;;;3.17;2.05;;;;;;;17.07;25.69;98425.22;5074909;28;20036;-65
2021/12/21 12:05:32;;;;;;;2.97;1.52;;;;;;;17.05;25.72;98424.63;5074654;28;20025;-66
2021/12/21 12:08:02;;;;;;;3.95;2.40;;;;;;;17.05;25.92;98429.97;5074463;28;20120;-67
2021/12/21 12:10:28;;;;;;;3.95;1.98;;;;;;;17.04;25.53;98436.31;5074597;28;20056;-66
2021/12/21 12:12:54;;;;;;;5.68;1.80;;;;;;;17.05;25.39;98443.34;5074858;28;20139;-66
2021/12/21 12:15:20;;;;;;;3.30;1.80;;;;;;;17.03;25.50;98446.16;5075062;28;20452;-65
2021/12/21 12:17:48;;;;;;;2.90;1.80;;;;;;;17.03;25.66;98448.84;5086036;28;20085;-66
2021/12/21 12:20:15;;;;;;;3.88;2.10;;;;;;;17.04;25.35;98455.03;5074253;28;20021;-65
2021/12/21 12:22:46;;;;;;;3.10;1.65;;;;;;;17.03;25.75;98450.69;5074360;28;20451;-65
2021/12/21 12:25:24;;;;;;;2.17;1.58;;;;;;;17.03;25.71;98464.06;5074084;28;20035;-66
2021/12/21 12:27:52;;;;;;;2.53;1.60;;;;;;;17.02;25.64;98468.56;5073479;28;20044;-66
2021/12/21 12:30:25;;;;;;;2.85;1.70;;;;;;;17.03;25.47;98464.06;5073310;28;20043;-66
2021/12/21 12:33:04;;;;;;;3.00;1.70;;;;;;;17.03;25.20;98466.75;5078224;28;20040;-66
2021/12/21 12:35:33;;;;;;;2.10;1.50;;;;;;;17.02;25.28;98473.09;5094315;28;20044;-67
2021/12/21 12:38:11;;;;;;;2.60;1.52;;;;;;;17.03;25.10;98477.44;5089911;28;20056;-66
2021/12/21 12:40:50;;;;;;;4.43;2.17;;;;;;;17.00;25.46;98481.28;5072787;28;20028;-67
2021/12/21 12:43:27;;;;;;;3.22;2.08;;;;;;;17.01;25.47;98480.28;5074152;28;20043;-67
2021/12/21 12:46:04;;;;;;;2.83;1.80;;;;;;;17.02;25.22;98475.78;5074145;28;20036;-67
2021/12/21 12:48:42;;;;;;;3.22;1.85;;;;;;;17.00;25.43;98483.97;5074310;28;20372;-67